sensor_id;sensor_type;location;lat;lon;timestamp;pressure;altitude;pressure_sealevel;temperature;humidity
77325;BME280;66387;53.440;10.390;2023-04-24T00:02:16;99409.44;;;12.07;82.44
77325;BME280;66387;53.440;10.390;2023-04-24T00:04:41;99401.91;;;11.99;82.71
77325;BME280;66387;53.440;10.390;2023-04-24T00:07:10;99407.69;;;12.07;83.04
77325;BME280;66387;53.440;10.390;2023-04-24T00:09:35;99386.31;;;11.99;83.29
77325;BME280;66387;53.440;10.390;2023-04-24T00:12:01;99395.56;;;12.06;84.01
77325;BME280;66387;53.440;10.390;2023-04-24T00:14:28;99389.47;;;12.07;82.51
77325;BME280;66387;53.440;10.390;2023-04-24T00:16:54;99391.03;;;12.11;84.06
77325;BME280;66387;53.440;10.390;2023-04-24T00:19:19;99389.22;;;12.13;82.66
77325;BME280;66387;53.440;10.390;2023-04-24T00:21:46;99372.56;;;11.96;82.88
77325;BME280;66387;53.440;10.390;2023-04-24T00:24:11;99382.69;;;12.03;84.21
77325;BME280;66387;53.440;10.390;2023-04-24T00:26:36;99382.50;;;12.08;82.56
77325;BME280;66387;53.440;10.390;2023-04-24T00:29:02;99381.78;;;12.04;82.98
77325;BME280;66387;53.440;10.390;2023-04-24T00:31:27;99380.25;;;11.99;82.46
77325;BME280;66387;53.440;10.390;2023-04-24T00:33:52;99383.41;;;12.07;83.42
77325;BME280;66387;53.440;10.390;2023-04-24T00:36:18;99377.56;;;12.02;83.29
77325;BME280;66387;53.440;10.390;2023-04-24T00:38:45;99379.44;;;11.98;82.93
77325;BME280;66387;53.440;10.390;2023-04-24T00:41:11;99374.09;;;12.01;83.17
77325;BME280;66387;53.440;10.390;2023-04-24T00:43:36;99378.38;;;12.02;81.85
77325;BME280;66387;53.440;10.390;2023-04-24T00:46:01;99378.38;;;12.02;82.73
77325;BME280;66387;53.440;10.390;2023-04-24T00:48:27;99365.50;;;11.99;81.46
77325;BME280;66387;53.440;10.390;2023-04-24T00:50:52;99364.66;;;11.99;82.37
77325;BME280;66387;53.440;10.390;2023-04-24T00:53:18;99351.84;;;11.94;82.19
77325;BME280;66387;53.440;10.390;2023-04-24T00:55:43;99356.91;;;11.97;81.29
77325;BME280;66387;53.440;10.390;2023-04-24T00:58:09;99348.16;;;12.00;81.93
77325;BME280;66387;53.440;10.390;2023-04-24T01:00:34;99347.41;;;11.96;82.04
77325;BME280;66387;53.440;10.390;2023-04-24T01:03:01;99346.56;;;11.96;81.70
77325;BME280;66387;53.440;10.390;2023-04-24T01:05:29;99343.13;;;11.95;82.11
77325;BME280;66387;53.440;10.390;2023-04-24T01:07:55;99336.00;;;12.00;80.92
77325;BME280;66387;53.440;10.390;2023-04-24T01:10:20;99327.03;;;12.07;80.66
77325;BME280;66387;53.440;10.390;2023-04-24T01:12:46;99342.53;;;12.10;80.42
77325;BME280;66387;53.440;10.390;2023-04-24T01:15:11;99342.38;;;12.13;79.33
77325;BME280;66387;53.440;10.390;2023-04-24T01:17:37;99347.50;;;12.16;79.62
77325;BME280;66387;53.440;10.390;2023-04-24T01:20:04;99349.72;;;12.25;78.02
77325;BME280;66387;53.440;10.390;2023-04-24T01:22:30;99350.75;;;12.21;78.38
77325;BME280;66387;53.440;10.390;2023-04-24T01:24:56;99346.41;;;12.22;78.14
77325;BME280;66387;53.440;10.390;2023-04-24T01:27:21;99345.53;;;12.21;78.64
77325;BME280;66387;53.440;10.390;2023-04-24T01:29:46;99334.50;;;12.16;78.78
77325;BME280;66387;53.440;10.390;2023-04-24T01:32:14;99339.56;;;12.19;79.00
77325;BME280;66387;53.440;10.390;2023-04-24T01:34:40;99336.41;;;12.11;78.06
77325;BME280;66387;53.440;10.390;2023-04-24T01:37:06;99332.25;;;12.07;78.41
77325;BME280;66387;53.440;10.390;2023-04-24T01:39:32;99337.50;;;12.06;78.44
77325;BME280;66387;53.440;10.390;2023-04-24T01:41:59;99339.28;;;12.05;78.82
77325;BME280;66387;53.440;10.390;2023-04-24T01:44:25;99331.81;;;11.96;79.00
77325;BME280;66387;53.440;10.390;2023-04-24T01:46:51;99335.56;;;11.89;79.31
77325;BME280;66387;53.440;10.390;2023-04-24T01:49:18;99331.94;;;11.93;80.28
77325;BME280;66387;53.440;10.390;2023-04-24T01:51:44;99326.06;;;11.88;79.81
77325;BME280;66387;53.440;10.390;2023-04-24T01:54:09;99320.22;;;11.83;80.46
77325;BME280;66387;53.440;10.390;2023-04-24T01:56:34;99330.59;;;11.83;79.25
77325;BME280;66387;53.440;10.390;2023-04-24T01:59:03;99317.81;;;11.77;79.97
77325;BME280;66387;53.440;10.390;2023-04-24T02:01:34;99324.06;;;11.73;80.69
77325;BME280;66387;53.440;10.390;2023-04-24T02:04:00;99326.72;;;11.70;80.09
77325;BME280;66387;53.440;10.390;2023-04-24T02:06:26;99323.47;;;11.65;80.10
77325;BME280;66387;53.440;10.390;2023-04-24T02:08:51;99321.81;;;11.62;80.24
77325;BME280;66387;53.440;10.390;2023-04-24T02:11:16;99313.19;;;11.62;80.25
77325;BME280;66387;53.440;10.390;2023-04-24T02:13:41;99314.16;;;11.59;80.42
77325;BME280;66387;53.440;10.390;2023-04-24T02:16:07;99326.19;;;11.62;80.10
77325;BME280;66387;53.440;10.390;2023-04-24T02:18:32;99328.16;;;11.55;80.05
77325;BME280;66387;53.440;10.390;2023-04-24T02:20:57;99331.78;;;11.51;79.78
77325;BME280;66387;53.440;10.390;2023-04-24T02:23:22;99325.69;;;11.52;80.26
77325;BME280;66387;53.440;10.390;2023-04-24T02:25:48;99330.03;;;11.52;79.36
77325;BME280;66387;53.440;10.390;2023-04-24T02:28:13;99331.72;;;11.53;79.17
77325;BME280;66387;53.440;10.390;2023-04-24T02:30:39;99336.03;;;11.54;78.78
77325;BME280;66387;53.440;10.390;2023-04-24T02:33:04;99320.56;;;11.51;78.60
77325;BME280;66387;53.440;10.390;2023-04-24T02:35:29;99322.47;;;11.46;79.14
77325;BME280;66387;53.440;10.390;2023-04-24T02:37:55;99322.47;;;11.46;78.45
77325;BME280;66387;53.440;10.390;2023-04-24T02:40:20;99320.00;;;11.43;79.48
77325;BME280;66387;53.440;10.390;2023-04-24T02:42:45;99319.41;;;11.35;78.90
77325;BME280;66387;53.440;10.390;2023-04-24T02:45:10;99316.59;;;11.41;78.92
77325;BME280;66387;53.440;10.390;2023-04-24T02:47:35;99309.88;;;11.35;78.66
77325;BME280;66387;53.440;10.390;2023-04-24T02:50:02;99298.34;;;11.19;79.21
77325;BME280;66387;53.440;10.390;2023-04-24T02:52:28;99315.13;;;11.33;79.63
77325;BME280;66387;53.440;10.390;2023-04-24T02:54:53;99324.00;;;11.28;79.42
77325;BME280;66387;53.440;10.390;2023-04-24T02:57:19;99303.31;;;11.25;79.86
77325;BME280;66387;53.440;10.390;2023-04-24T02:59:44;99322.91;;;11.33;80.05
77325;BME280;66387;53.440;10.390;2023-04-24T03:02:09;99308.13;;;11.36;79.26
77325;BME280;66387;53.440;10.390;2023-04-24T03:04:35;99299.03;;;11.24;80.29
77325;BME280;66387;53.440;10.390;2023-04-24T03:07:00;99317.25;;;11.22;80.08
77325;BME280;66387;53.440;10.390;2023-04-24T03:09:26;99318.84;;;11.26;79.56
77325;BME280;66387;53.440;10.390;2023-04-24T03:11:51;99311.28;;;11.20;81.02
77325;BME280;66387;53.440;10.390;2023-04-24T03:14:16;99317.22;;;11.24;80.50
77325;BME280;66387;53.440;10.390;2023-04-24T03:16:42;99319.78;;;11.25;80.32
77325;BME280;66387;53.440;10.390;2023-04-24T03:19:07;99318.06;;;11.24;80.56
77325;BME280;66387;53.440;10.390;2023-04-24T03:21:33;99329.59;;;11.17;80.75
77325;BME280;66387;53.440;10.390;2023-04-24T03:23:58;99325.41;;;11.13;80.16
77325;BME280;66387;53.440;10.390;2023-04-24T03:26:24;99314.38;;;11.07;80.39
77325;BME280;66387;53.440;10.390;2023-04-24T03:28:49;99318.91;;;11.00;80.47
77325;BME280;66387;53.440;10.390;2023-04-24T03:31:15;99318.16;;;10.98;80.54
77325;BME280;66387;53.440;10.390;2023-04-24T03:33:41;99312.25;;;10.93;80.92
77325;BME280;66387;53.440;10.390;2023-04-24T03:36:07;99313.06;;;10.95;79.90
77325;BME280;66387;53.440;10.390;2023-04-24T03:38:32;99316.88;;;10.85;79.92
77325;BME280;66387;53.440;10.390;2023-04-24T03:40:57;99317.09;;;10.79;80.54
77325;BME280;66387;53.440;10.390;2023-04-24T03:43:23;99313.84;;;10.72;80.46
77325;BME280;66387;53.440;10.390;2023-04-24T03:45:48;99314.56;;;10.77;80.46
77325;BME280;66387;53.440;10.390;2023-04-24T03:48:13;99312.13;;;10.73;80.20
77325;BME280;66387;53.440;10.390;2023-04-24T03:50:39;99305.31;;;10.69;78.53
77325;BME280;66387;53.440;10.390;2023-04-24T03:53:04;99300.94;;;10.71;79.00
77325;BME280;66387;53.440;10.390;2023-04-24T03:55:29;99302.94;;;10.63;78.67
77325;BME280;66387;53.440;10.390;2023-04-24T03:57:54;99311.84;;;10.56;78.56
77325;BME280;66387;53.440;10.390;2023-04-24T04:00:20;99298.75;;;10.59;78.18
77325;BME280;66387;53.440;10.390;2023-04-24T04:02:46;99305.81;;;10.55;78.74
77325;BME280;66387;53.440;10.390;2023-04-24T04:05:11;99311.09;;;10.52;77.70
77325;BME280;66387;53.440;10.390;2023-04-24T04:07:36;99305.81;;;10.55;77.73
77325;BME280;66387;53.440;10.390;2023-04-24T04:10:02;99309.88;;;10.38;76.83
77325;BME280;66387;53.440;10.390;2023-04-24T04:12:27;99313.22;;;10.41;77.74
77325;BME280;66387;53.440;10.390;2023-04-24T04:14:52;99314.88;;;10.42;77.66
77325;BME280;66387;53.440;10.390;2023-04-24T04:17:17;99303.75;;;10.39;77.87
77325;BME280;66387;53.440;10.390;2023-04-24T04:19:43;99311.72;;;10.34;77.39
77325;BME280;66387;53.440;10.390;2023-04-24T04:22:08;99312.75;;;10.28;77.79
77325;BME280;66387;53.440;10.390;2023-04-24T04:24:33;99311.03;;;10.27;77.23
77325;BME280;66387;53.440;10.390;2023-04-24T04:27:03;99326.81;;;10.21;77.16
77325;BME280;66387;53.440;10.390;2023-04-24T04:29:29;99329.72;;;10.11;77.00
77325;BME280;66387;53.440;10.390;2023-04-24T04:31:56;99317.59;;;10.11;76.83
77325;BME280;66387;53.440;10.390;2023-04-24T04:34:21;99316.72;;;10.12;75.74
77325;BME280;66387;53.440;10.390;2023-04-24T04:36:47;99315.78;;;10.13;76.32
77325;BME280;66387;53.440;10.390;2023-04-24T04:39:12;99314.06;;;10.14;75.94
77325;BME280;66387;53.440;10.390;2023-04-24T04:41:40;99318.75;;;10.30;74.20
77325;BME280;66387;53.440;10.390;2023-04-24T04:44:05;99314.13;;;10.39;72.92
77325;BME280;66387;53.440;10.390;2023-04-24T04:46:31;99325.78;;;10.27;73.86
77325;BME280;66387;53.440;10.390;2023-04-24T04:49:02;99307.56;;;10.28;72.78
77325;BME280;66387;53.440;10.390;2023-04-24T04:51:28;99302.69;;;10.19;73.45
77325;BME280;66387;53.440;10.390;2023-04-24T04:53:53;99314.44;;;10.29;73.21
77325;BME280;66387;53.440;10.390;2023-04-24T04:56:18;99316.16;;;10.30;73.09
77325;BME280;66387;53.440;10.390;2023-04-24T04:58:44;99320.53;;;10.28;73.28
77325;BME280;66387;53.440;10.390;2023-04-24T05:01:09;99313.75;;;10.24;73.41
77325;BME280;66387;53.440;10.390;2023-04-24T05:03:35;99312.63;;;10.31;74.11
77325;BME280;66387;53.440;10.390;2023-04-24T05:06:01;99315.22;;;10.31;73.61
77325;BME280;66387;53.440;10.390;2023-04-24T05:08:27;99308.38;;;10.30;72.63
77325;BME280;66387;53.440;10.390;2023-04-24T05:10:52;99318.69;;;10.32;73.09
77325;BME280;66387;53.440;10.390;2023-04-24T05:13:17;99310.72;;;10.38;72.83
77325;BME280;66387;53.440;10.390;2023-04-24T05:15:42;99309.75;;;10.41;72.90
77325;BME280;66387;53.440;10.390;2023-04-24T05:18:08;99314.81;;;10.45;72.71
77325;BME280;66387;53.440;10.390;2023-04-24T05:20:33;99322.41;;;10.50;72.56
77325;BME280;66387;53.440;10.390;2023-04-24T05:22:58;99309.19;;;10.57;72.50
77325;BME280;66387;53.440;10.390;2023-04-24T05:25:23;99314.34;;;10.59;73.49
77325;BME280;66387;53.440;10.390;2023-04-24T05:27:49;99311.88;;;10.54;73.47
77325;BME280;66387;53.440;10.390;2023-04-24T05:30:14;99320.53;;;10.55;73.13
77325;BME280;66387;53.440;10.390;2023-04-24T05:32:39;99332.50;;;10.59;72.51
77325;BME280;66387;53.440;10.390;2023-04-24T05:35:05;99324.75;;;10.57;72.60
77325;BME280;66387;53.440;10.390;2023-04-24T05:37:30;99318.81;;;10.54;73.75
77325;BME280;66387;53.440;10.390;2023-04-24T05:39:56;99320.00;;;10.45;73.07
77325;BME280;66387;53.440;10.390;2023-04-24T05:42:21;99330.16;;;10.51;74.02
77325;BME280;66387;53.440;10.390;2023-04-24T05:44:46;99330.13;;;10.53;73.47
77325;BME280;66387;53.440;10.390;2023-04-24T05:47:11;99340.50;;;10.53;73.72
77325;BME280;66387;53.440;10.390;2023-04-24T05:49:37;99342.78;;;10.62;73.76
77325;BME280;66387;53.440;10.390;2023-04-24T05:52:02;99338.28;;;10.67;73.85
77325;BME280;66387;53.440;10.390;2023-04-24T05:54:29;99332.88;;;10.73;72.01
77325;BME280;66387;53.440;10.390;2023-04-24T05:56:54;99341.44;;;10.75;72.98
77325;BME280;66387;53.440;10.390;2023-04-24T05:59:20;99338.59;;;10.82;72.27
77325;BME280;66387;53.440;10.390;2023-04-24T06:01:46;99336.91;;;10.81;71.33
77325;BME280;66387;53.440;10.390;2023-04-24T06:04:12;99327.28;;;10.85;72.38
77325;BME280;66387;53.440;10.390;2023-04-24T06:06:38;99328.06;;;10.87;71.36
77325;BME280;66387;53.440;10.390;2023-04-24T06:09:03;99332.03;;;10.97;73.12
77325;BME280;66387;53.440;10.390;2023-04-24T06:11:29;99331.81;;;11.03;71.86
77325;BME280;66387;53.440;10.390;2023-04-24T06:13:54;99325.63;;;11.07;71.25
77325;BME280;66387;53.440;10.390;2023-04-24T06:16:20;99343.56;;;11.13;71.49
77325;BME280;66387;53.440;10.390;2023-04-24T06:18:45;99340.00;;;11.16;71.42
77325;BME280;66387;53.440;10.390;2023-04-24T06:21:12;99335.44;;;11.22;71.15
77325;BME280;66387;53.440;10.390;2023-04-24T06:23:37;99330.03;;;11.28;70.72
77325;BME280;66387;53.440;10.390;2023-04-24T06:26:02;99336.72;;;11.36;70.94
77325;BME280;66387;53.440;10.390;2023-04-24T06:28:27;99332.41;;;11.35;70.06
77325;BME280;66387;53.440;10.390;2023-04-24T06:30:54;99347.22;;;11.32;69.86
77325;BME280;66387;53.440;10.390;2023-04-24T06:33:19;99344.16;;;11.45;70.09
77325;BME280;66387;53.440;10.390;2023-04-24T06:35:45;99344.16;;;11.45;69.24
77325;BME280;66387;53.440;10.390;2023-04-24T06:38:10;99343.25;;;11.46;69.05
77325;BME280;66387;53.440;10.390;2023-04-24T06:40:35;99339.63;;;11.50;69.23
77325;BME280;66387;53.440;10.390;2023-04-24T06:43:00;99341.88;;;11.59;68.72
77325;BME280;66387;53.440;10.390;2023-04-24T06:45:28;99344.41;;;11.62;68.70
77325;BME280;66387;53.440;10.390;2023-04-24T06:47:54;99342.81;;;11.58;68.07
77325;BME280;66387;53.440;10.390;2023-04-24T06:50:19;99344.06;;;11.69;68.27
77325;BME280;66387;53.440;10.390;2023-04-24T06:52:44;99347.22;;;11.79;67.43
77325;BME280;66387;53.440;10.390;2023-04-24T06:55:10;99340.31;;;11.78;67.86
77325;BME280;66387;53.440;10.390;2023-04-24T06:57:36;99339.44;;;11.79;67.77
77325;BME280;66387;53.440;10.390;2023-04-24T07:00:02;99334.84;;;11.86;67.09
77325;BME280;66387;53.440;10.390;2023-04-24T07:02:28;99334.28;;;11.99;67.16
77325;BME280;66387;53.440;10.390;2023-04-24T07:04:53;99339.50;;;11.99;66.22
77325;BME280;66387;53.440;10.390;2023-04-24T07:07:19;99336.00;;;12.00;66.02
77325;BME280;66387;53.440;10.390;2023-04-24T07:09:44;99329.63;;;12.07;66.61
77325;BME280;66387;53.440;10.390;2023-04-24T07:12:10;99334.41;;;12.18;65.97
77325;BME280;66387;53.440;10.390;2023-04-24T07:14:37;99335.28;;;12.39;65.85
77325;BME280;66387;53.440;10.390;2023-04-24T07:17:03;99348.69;;;12.29;62.97
77325;BME280;66387;53.440;10.390;2023-04-24T07:19:28;99347.44;;;12.60;65.15
77325;BME280;66387;53.440;10.390;2023-04-24T07:21:54;99338.16;;;12.74;64.27
77325;BME280;66387;53.440;10.390;2023-04-24T07:24:20;99340.16;;;12.68;62.85
77325;BME280;66387;53.440;10.390;2023-04-24T07:26:46;99352.66;;;12.60;63.56
77325;BME280;66387;53.440;10.390;2023-04-24T07:29:12;99345.34;;;12.48;62.60
77325;BME280;66387;53.440;10.390;2023-04-24T07:31:38;99360.13;;;12.25;61.81
77325;BME280;66387;53.440;10.390;2023-04-24T07:34:03;99346.81;;;12.33;63.68
77325;BME280;66387;53.440;10.390;2023-04-24T07:36:29;99364.47;;;12.47;63.22
77325;BME280;66387;53.440;10.390;2023-04-24T07:38:54;99358.75;;;12.59;62.66
77325;BME280;66387;53.440;10.390;2023-04-24T07:41:20;99353.88;;;12.51;62.14
77325;BME280;66387;53.440;10.390;2023-04-24T07:43:46;99355.97;;;12.63;61.82
77325;BME280;66387;53.440;10.390;2023-04-24T07:46:11;99365.19;;;12.92;61.26
77325;BME280;66387;53.440;10.390;2023-04-24T07:48:36;99346.16;;;12.90;60.10
77325;BME280;66387;53.440;10.390;2023-04-24T07:51:02;99343.16;;;13.19;60.28
77325;BME280;66387;53.440;10.390;2023-04-24T07:53:27;99343.66;;;13.48;59.46
77325;BME280;66387;53.440;10.390;2023-04-24T07:55:54;99334.88;;;13.49;59.48
77325;BME280;66387;53.440;10.390;2023-04-24T07:58:20;99340.97;;;13.49;58.04
77325;BME280;66387;53.440;10.390;2023-04-24T08:00:45;99347.03;;;13.68;57.59
77325;BME280;66387;53.440;10.390;2023-04-24T08:03:11;99349.44;;;13.73;57.23
77325;BME280;66387;53.440;10.390;2023-04-24T08:05:37;99350.56;;;13.67;57.33
77325;BME280;66387;53.440;10.390;2023-04-24T08:08:03;99353.09;;;13.69;57.19
77325;BME280;66387;53.440;10.390;2023-04-24T08:10:28;99352.09;;;13.90;58.41
77325;BME280;66387;53.440;10.390;2023-04-24T08:12:53;99360.97;;;13.67;55.92
77325;BME280;66387;53.440;10.390;2023-04-24T08:15:20;99355.06;;;14.01;57.06
77325;BME280;66387;53.440;10.390;2023-04-24T08:17:45;99365.66;;;13.98;56.19
77325;BME280;66387;53.440;10.390;2023-04-24T08:20:11;99363.28;;;13.92;57.24
77325;BME280;66387;53.440;10.390;2023-04-24T08:22:43;99367.56;;;13.76;56.52
77325;BME280;66387;53.440;10.390;2023-04-24T08:25:09;99367.41;;;13.79;57.45
77325;BME280;66387;53.440;10.390;2023-04-24T08:27:35;99384.28;;;13.52;57.71
77325;BME280;66387;53.440;10.390;2023-04-24T08:30:02;99386.69;;;13.17;58.18
77325;BME280;66387;53.440;10.390;2023-04-24T08:32:28;99384.00;;;13.19;59.39
77325;BME280;66387;53.440;10.390;2023-04-24T08:34:57;99385.00;;;13.16;59.44
77325;BME280;66387;53.440;10.390;2023-04-24T08:37:23;99384.13;;;13.16;60.32
77325;BME280;66387;53.440;10.390;2023-04-24T08:39:49;99381.63;;;13.14;59.46
77325;BME280;66387;53.440;10.390;2023-04-24T08:42:15;99389.66;;;13.08;59.46
77325;BME280;66387;53.440;10.390;2023-04-24T08:44:42;99381.47;;;13.17;58.78
77325;BME280;66387;53.440;10.390;2023-04-24T08:47:07;99382.38;;;13.37;58.32
77325;BME280;66387;53.440;10.390;2023-04-24T08:49:33;99387.00;;;13.69;58.14
77325;BME280;66387;53.440;10.390;2023-04-24T08:52:01;99380.31;;;13.82;57.37
77325;BME280;66387;53.440;10.390;2023-04-24T08:54:28;99383.34;;;13.73;56.35
77325;BME280;66387;53.440;10.390;2023-04-24T08:56:53;99379.44;;;13.82;55.64
77325;BME280;66387;53.440;10.390;2023-04-24T08:59:23;99390.16;;;13.75;56.08
77325;BME280;66387;53.440;10.390;2023-04-24T09:01:49;99390.34;;;13.52;56.77
77325;BME280;66387;53.440;10.390;2023-04-24T09:04:16;99380.03;;;13.69;56.84
77325;BME280;66387;53.440;10.390;2023-04-24T09:06:45;99389.53;;;13.70;57.19
77325;BME280;66387;53.440;10.390;2023-04-24T09:09:10;99396.94;;;13.61;55.99
77325;BME280;66387;53.440;10.390;2023-04-24T09:11:36;99390.38;;;13.90;56.13
77325;BME280;66387;53.440;10.390;2023-04-24T09:14:02;99396.81;;;14.39;55.18
77325;BME280;66387;53.440;10.390;2023-04-24T09:16:28;99385.22;;;14.25;54.39
77325;BME280;66387;53.440;10.390;2023-04-24T09:18:55;99392.44;;;14.20;56.88
77325;BME280;66387;53.440;10.390;2023-04-24T09:21:21;99395.50;;;14.29;57.10
77325;BME280;66387;53.440;10.390;2023-04-24T09:23:57;99394.25;;;14.00;57.11
77325;BME280;66387;53.440;10.390;2023-04-24T09:26:22;99392.69;;;13.96;57.46
77325;BME280;66387;53.440;10.390;2023-04-24T09:28:48;99395.03;;;13.83;58.65
77325;BME280;66387;53.440;10.390;2023-04-24T09:31:15;99404.06;;;13.76;58.27
77325;BME280;66387;53.440;10.390;2023-04-24T09:33:57;99399.44;;;13.44;58.64
77325;BME280;66387;53.440;10.390;2023-04-24T09:36:30;99408.31;;;13.97;58.12
77325;BME280;66387;53.440;10.390;2023-04-24T09:38:59;99409.50;;;13.90;56.60
77325;BME280;66387;53.440;10.390;2023-04-24T09:41:25;99407.50;;;13.95;56.37
77325;BME280;66387;53.440;10.390;2023-04-24T09:43:53;99416.41;;;13.91;57.21
77325;BME280;66387;53.440;10.390;2023-04-24T09:46:19;99404.06;;;13.37;57.42
77325;BME280;66387;53.440;10.390;2023-04-24T09:48:44;99424.66;;;13.43;57.75
77325;BME280;66387;53.440;10.390;2023-04-24T09:51:10;99405.63;;;13.80;57.20
77325;BME280;66387;53.440;10.390;2023-04-24T09:53:36;99406.19;;;13.87;57.95
77325;BME280;66387;53.440;10.390;2023-04-24T09:56:06;99408.56;;;14.29;56.28
77325;BME280;66387;53.440;10.390;2023-04-24T09:58:31;99421.53;;;13.74;56.01
77325;BME280;66387;53.440;10.390;2023-04-24T10:00:57;99431.34;;;13.49;55.96
77325;BME280;66387;53.440;10.390;2023-04-24T10:03:25;99423.47;;;13.30;56.58
77325;BME280;66387;53.440;10.390;2023-04-24T10:05:52;99421.47;;;13.16;57.64
77325;BME280;66387;53.440;10.390;2023-04-24T10:08:18;99424.19;;;13.34;58.80
77325;BME280;66387;53.440;10.390;2023-04-24T10:10:44;99431.91;;;13.37;55.94
77325;BME280;66387;53.440;10.390;2023-04-24T10:13:11;99419.59;;;13.59;55.56
77325;BME280;66387;53.440;10.390;2023-04-24T10:15:37;99416.25;;;14.32;54.63
77325;BME280;66387;53.440;10.390;2023-04-24T10:18:05;99411.25;;;14.08;54.77
77325;BME280;66387;53.440;10.390;2023-04-24T10:20:32;99425.84;;;13.94;54.40
77325;BME280;66387;53.440;10.390;2023-04-24T10:22:59;99414.22;;;14.01;55.06
77325;BME280;66387;53.440;10.390;2023-04-24T10:25:26;99420.34;;;14.18;55.35
77325;BME280;66387;53.440;10.390;2023-04-24T10:27:53;99452.75;;;14.69;54.59
77325;BME280;66387;53.440;10.390;2023-04-24T10:30:19;99430.06;;;15.05;53.00
77325;BME280;66387;53.440;10.390;2023-04-24T10:32:45;99427.13;;;14.22;54.32
77325;BME280;66387;53.440;10.390;2023-04-24T10:35:14;99422.59;;;14.26;54.94
77325;BME280;66387;53.440;10.390;2023-04-24T10:37:44;99424.22;;;14.10;54.99
77325;BME280;66387;53.440;10.390;2023-04-24T10:40:11;99425.00;;;14.12;56.50
77325;BME280;66387;53.440;10.390;2023-04-24T10:42:40;99433.34;;;14.20;55.17
77325;BME280;66387;53.440;10.390;2023-04-24T10:45:19;99438.63;;;14.18;54.46
77325;BME280;66387;53.440;10.390;2023-04-24T10:50:21;99426.00;;;13.91;55.36
77325;BME280;66387;53.440;10.390;2023-04-24T10:52:47;99431.97;;;13.93;55.13
77325;BME280;66387;53.440;10.390;2023-04-24T10:55:13;99437.84;;;13.79;54.37
77325;BME280;66387;53.440;10.390;2023-04-24T10:58:01;99437.59;;;13.45;56.37
77325;BME280;66387;53.440;10.390;2023-04-24T11:00:27;99433.31;;;13.23;57.25
77325;BME280;66387;53.440;10.390;2023-04-24T11:02:53;99450.41;;;13.09;57.55
77325;BME280;66387;53.440;10.390;2023-04-24T11:05:20;99437.09;;;13.16;56.94
77325;BME280;66387;53.440;10.390;2023-04-24T11:08:11;99436.59;;;13.29;57.14
77325;BME280;66387;53.440;10.390;2023-04-24T11:10:43;99415.56;;;13.91;55.79
77325;BME280;66387;53.440;10.390;2023-04-24T11:13:08;99442.81;;;14.41;53.34
77325;BME280;66387;53.440;10.390;2023-04-24T11:15:34;99435.72;;;14.24;51.94
77325;BME280;66387;53.440;10.390;2023-04-24T11:17:59;99432.19;;;14.25;51.92
77325;BME280;66387;53.440;10.390;2023-04-24T11:20:25;99428.13;;;14.01;52.39
77325;BME280;66387;53.440;10.390;2023-04-24T11:22:53;99424.44;;;14.24;52.32
77325;BME280;66387;53.440;10.390;2023-04-24T11:25:20;99421.22;;;14.38;52.47
77325;BME280;66387;53.440;10.390;2023-04-24T11:27:47;99422.03;;;14.19;52.99
77325;BME280;66387;53.440;10.390;2023-04-24T11:30:18;99402.38;;;13.94;53.06
77325;BME280;66387;53.440;10.390;2023-04-24T11:32:47;99425.69;;;13.78;54.44
77325;BME280;66387;53.440;10.390;2023-04-24T11:35:20;99422.13;;;13.81;55.97
77325;BME280;66387;53.440;10.390;2023-04-24T11:37:51;99405.19;;;13.32;53.61
77325;BME280;66387;53.440;10.390;2023-04-24T11:40:18;99428.13;;;13.44;53.68
77325;BME280;66387;53.440;10.390;2023-04-24T11:42:51;99427.59;;;13.36;54.41
77325;BME280;66387;53.440;10.390;2023-04-24T11:45:20;99428.19;;;13.22;54.92
77325;BME280;66387;53.440;10.390;2023-04-24T11:47:46;99425.66;;;13.20;55.03
77325;BME280;66387;53.440;10.390;2023-04-24T11:50:13;99436.34;;;13.14;54.06
77325;BME280;66387;53.440;10.390;2023-04-24T11:52:43;99419.34;;;13.04;54.46
77325;BME280;66387;53.440;10.390;2023-04-24T11:57:43;99429.78;;;13.45;54.59
77325;BME280;66387;53.440;10.390;2023-04-24T12:00:22;99435.97;;;13.81;53.82
77325;BME280;66387;53.440;10.390;2023-04-24T12:02:48;99424.72;;;14.72;52.20
77325;BME280;66387;53.440;10.390;2023-04-24T12:05:25;99429.75;;;14.41;51.94
77325;BME280;66387;53.440;10.390;2023-04-24T12:07:52;99425.56;;;14.73;51.63
77325;BME280;66387;53.440;10.390;2023-04-24T12:10:24;99402.19;;;16.04;49.14
77325;BME280;66387;53.440;10.390;2023-04-24T12:12:51;99414.69;;;15.66;48.41
77325;BME280;66387;53.440;10.390;2023-04-24T12:15:18;99413.84;;;16.14;46.25
77325;BME280;66387;53.440;10.390;2023-04-24T12:17:44;99411.75;;;16.21;46.49
77325;BME280;66387;53.440;10.390;2023-04-24T12:20:10;99409.34;;;16.79;45.63
77325;BME280;66387;53.440;10.390;2023-04-24T12:23:02;99417.22;;;16.63;46.41
77325;BME280;66387;53.440;10.390;2023-04-24T12:25:32;99410.19;;;16.33;45.74
77325;BME280;66387;53.440;10.390;2023-04-24T12:30:29;99416.16;;;15.72;47.02
77325;BME280;66387;53.440;10.390;2023-04-24T12:32:57;99413.13;;;15.80;47.20
77325;BME280;66387;53.440;10.390;2023-04-24T12:35:24;99415.81;;;15.28;47.57
77325;BME280;66387;53.440;10.390;2023-04-24T12:37:49;99423.00;;;15.07;48.81
77325;BME280;66387;53.440;10.390;2023-04-24T12:40:16;99432.66;;;14.88;48.67
77325;BME280;66387;53.440;10.390;2023-04-24T12:42:44;99441.56;;;14.84;49.99
77325;BME280;66387;53.440;10.390;2023-04-24T12:45:10;99441.06;;;14.21;49.85
77325;BME280;66387;53.440;10.390;2023-04-24T12:47:38;99427.47;;;14.34;50.99
77325;BME280;66387;53.440;10.390;2023-04-24T12:50:04;99425.41;;;14.21;50.88
77325;BME280;66387;53.440;10.390;2023-04-24T12:52:30;99426.13;;;14.06;51.62
77325;BME280;66387;53.440;10.390;2023-04-24T12:54:58;99436.16;;;14.15;52.46